createdAt,value
2023-01-15T00:04:09.859Z,101841.75
2023-01-15T00:09:11.157Z,101848.06
2023-01-15T00:14:09.578Z,101840.59
2023-01-15T00:19:21.652Z,101843.28
2023-01-15T00:24:41.893Z,101851.66
2023-01-15T00:29:41.028Z,101834.13
2023-01-15T00:34:39.581Z,101840.34
2023-01-15T00:39:37.682Z,101853.66
2023-01-15T00:50:50.037Z,101862.63
2023-01-15T00:55:48.725Z,101844.53
2023-01-15T01:00:47.429Z,101843.09
2023-01-15T01:05:45.984Z,101823.34
2023-01-15T01:10:46.451Z,101848.28
2023-01-15T01:15:44.821Z,101834.75
2023-01-15T01:20:43.540Z,101813.00
2023-01-15T01:25:41.087Z,101804.09
2023-01-15T01:30:39.727Z,101798.38
2023-01-15T01:35:39.732Z,101807.19
2023-01-15T01:40:38.919Z,101806.13
2023-01-15T01:45:37.815Z,101805.59
2023-01-15T01:50:38.445Z,101776.44
2023-01-15T01:55:36.655Z,101790.38
2023-01-15T02:00:35.642Z,101783.00
2023-01-15T02:05:37.080Z,101794.84
2023-01-15T02:10:36.244Z,101799.22
2023-01-15T02:15:47.235Z,101799.41
2023-01-15T02:20:52.759Z,101782.69
2023-01-15T02:26:08.908Z,101792.63
2023-01-15T02:31:17.562Z,101788.28
2023-01-15T02:36:16.515Z,101790.38
2023-01-15T02:41:17.905Z,101800.53
2023-01-15T02:46:22.452Z,101792.78
2023-01-15T02:51:23.944Z,101763.78
2023-01-15T02:56:26.613Z,101771.97
2023-01-15T03:01:29.640Z,101773.31
2023-01-15T03:06:38.703Z,101756.63
2023-01-15T03:11:47.894Z,101758.13
2023-01-15T03:16:51.341Z,101777.28
2023-01-15T03:22:00.092Z,101781.38
2023-01-15T03:27:00.857Z,101768.84
2023-01-15T03:32:00.758Z,101771.00
2023-01-15T03:36:58.814Z,101768.63
2023-01-15T03:42:24.232Z,101771.78
2023-01-15T03:47:42.078Z,101786.53
2023-01-15T03:52:47.405Z,101764.16
2023-01-15T03:57:51.347Z,101771.34
2023-01-15T04:02:50.126Z,101767.25
2023-01-15T04:07:49.578Z,101772.66
2023-01-15T04:12:49.522Z,101771.22
2023-01-15T04:17:49.657Z,101787.91
2023-01-15T04:22:48.868Z,101759.81
2023-01-15T04:27:47.880Z,101781.28
2023-01-15T04:32:57.128Z,101777.53
2023-01-15T04:37:57.778Z,101780.31
2023-01-15T04:43:16.105Z,101779.94
2023-01-15T04:48:13.692Z,101776.75
2023-01-15T04:53:12.419Z,101765.75
2023-01-15T04:58:10.304Z,101764.75
2023-01-15T05:03:08.903Z,101760.72
2023-01-15T05:08:07.122Z,101769.56
2023-01-15T05:13:06.022Z,101762.34
2023-01-15T05:18:04.925Z,101762.53
2023-01-15T05:23:03.732Z,101780.59
2023-01-15T05:28:02.323Z,101784.19
2023-01-15T05:33:01.259Z,101774.19
2023-01-15T05:37:59.828Z,101776.91
2023-01-15T05:42:58.700Z,101788.63
2023-01-15T05:47:57.270Z,101806.00
2023-01-15T05:52:56.016Z,101778.00
2023-01-15T05:57:55.146Z,101776.00
2023-01-15T06:02:54.093Z,101791.56
2023-01-15T06:07:52.948Z,101789.69
2023-01-15T06:12:50.305Z,101786.34
2023-01-15T06:17:50.911Z,101793.91
2023-01-15T06:22:49.727Z,101785.34
2023-01-15T06:27:54.351Z,101772.22
2023-01-15T06:32:52.023Z,101778.34
2023-01-15T06:37:50.674Z,101789.03
2023-01-15T06:43:09.201Z,101783.75
2023-01-15T06:48:09.016Z,101803.06
2023-01-15T06:53:08.389Z,101804.84
2023-01-15T06:58:07.074Z,101793.00
2023-01-15T07:03:06.274Z,101788.22
2023-01-15T07:08:04.929Z,101814.16
2023-01-15T07:13:07.436Z,101815.31
2023-01-15T07:18:06.014Z,101795.09
2023-01-15T07:23:04.674Z,101830.41
2023-01-15T07:28:14.033Z,101807.47
2023-01-15T07:33:13.135Z,101792.47
2023-01-15T07:38:10.834Z,101793.66
2023-01-15T07:43:29.728Z,101813.19
2023-01-15T07:48:49.041Z,101813.84
2023-01-15T07:53:59.356Z,101789.88
2023-01-15T07:58:57.870Z,101802.53
2023-01-15T08:03:55.401Z,101785.56
2023-01-15T08:08:52.980Z,101784.66
2023-01-15T08:14:10.556Z,101795.75
2023-01-15T08:19:08.909Z,101784.44
2023-01-15T08:24:07.590Z,101788.25
2023-01-15T08:29:06.406Z,101808.81
2023-01-15T08:34:04.875Z,101804.00
2023-01-15T08:39:04.263Z,101798.44
2023-01-15T08:44:03.659Z,101791.03
2023-01-15T08:49:01.667Z,101784.53
2023-01-15T08:54:01.454Z,101794.91
2023-01-15T08:59:25.648Z,101795.63
2023-01-15T09:04:59.381Z,101790.59
2023-01-15T09:09:59.081Z,101759.41
2023-01-15T09:15:01.692Z,101758.22
2023-01-15T09:20:04.872Z,101765.28
2023-01-15T09:25:06.010Z,101745.78
2023-01-15T09:30:05.354Z,101732.56
2023-01-15T09:35:03.974Z,101735.50
2023-01-15T09:46:15.659Z,101691.28
2023-01-15T09:51:17.859Z,101728.91
2023-01-15T09:56:28.053Z,101718.09
2023-01-15T10:01:31.402Z,101709.19
2023-01-15T10:06:49.054Z,101707.38
2023-01-15T10:12:40.960Z,101699.66
2023-01-15T10:18:24.087Z,101639.47
2023-01-15T10:23:39.494Z,101675.59
2023-01-15T10:29:14.215Z,101666.66
2023-01-15T10:35:11.253Z,101658.63
2023-01-15T10:40:29.092Z,101643.47
2023-01-15T10:45:34.388Z,101615.56
2023-01-15T10:50:44.105Z,101602.88
2023-01-15T10:55:50.812Z,101600.75
2023-01-15T11:00:57.769Z,101615.06
2023-01-15T11:05:58.245Z,101581.50
2023-01-15T11:11:11.144Z,101603.53
2023-01-15T11:16:50.084Z,101577.00
2023-01-15T11:21:52.488Z,101564.00
2023-01-15T11:26:52.603Z,101554.94
2023-01-15T11:31:51.150Z,101536.78
2023-01-15T11:36:49.232Z,101566.47
2023-01-15T11:42:35.496Z,101555.00
2023-01-15T11:47:53.747Z,101527.06
2023-01-15T11:53:01.562Z,101542.09
2023-01-15T11:58:12.124Z,101528.22
2023-01-15T12:03:23.566Z,101516.34
2023-01-15T12:08:28.809Z,101522.91
2023-01-15T12:13:46.072Z,101512.22
2023-01-15T12:19:22.791Z,101491.38
2023-01-15T12:24:36.584Z,101512.69
2023-01-15T12:29:54.960Z,101472.91
2023-01-15T12:35:06.465Z,101464.28
2023-01-15T12:40:20.069Z,101476.59
2023-01-15T12:45:27.812Z,101477.50
2023-01-15T12:50:37.321Z,101469.84
2023-01-15T12:55:41.762Z,101453.94
2023-01-15T13:00:43.541Z,101463.06
2023-01-15T13:05:52.271Z,101446.94
2023-01-15T13:10:52.005Z,101458.94
2023-01-15T13:15:59.698Z,101437.44
2023-01-15T13:20:59.051Z,101443.75
2023-01-15T13:26:18.859Z,101464.53
2023-01-15T13:32:14.295Z,101442.44
2023-01-15T13:37:22.352Z,101457.44
2023-01-15T13:42:38.635Z,101436.25
2023-01-15T13:47:48.388Z,101450.41
2023-01-15T13:53:37.722Z,101435.59
2023-01-15T13:58:56.957Z,101430.75
2023-01-15T14:04:20.639Z,101440.72
2023-01-15T14:09:20.008Z,101440.03
2023-01-15T14:14:34.887Z,101425.84
2023-01-15T14:20:02.616Z,101437.19
2023-01-15T14:25:31.961Z,101431.84
2023-01-15T14:31:02.803Z,101412.53
2023-01-15T14:36:26.219Z,101432.28
2023-01-15T14:41:33.153Z,101404.97
2023-01-15T14:46:35.123Z,101421.41
2023-01-15T14:51:48.325Z,101405.69
2023-01-15T14:56:58.302Z,101408.84
2023-01-15T15:02:02.848Z,101400.44
2023-01-15T15:07:12.442Z,101397.75
2023-01-15T15:12:35.384Z,101392.56
2023-01-15T15:18:01.848Z,101421.69
2023-01-15T15:23:16.321Z,101402.13
2023-01-15T15:28:21.021Z,101398.94
2023-01-15T15:39:20.649Z,101393.09
2023-01-15T15:44:56.842Z,101374.59
2023-01-15T15:49:58.338Z,101394.53
2023-01-15T15:55:09.283Z,101391.84
2023-01-15T16:00:18.129Z,101390.06
2023-01-15T16:05:39.149Z,101414.44
2023-01-15T16:10:36.669Z,101380.50
2023-01-15T16:15:40.033Z,101381.16
2023-01-15T16:20:39.474Z,101386.00
2023-01-15T16:25:40.977Z,101399.06
2023-01-15T16:31:11.257Z,101413.09
2023-01-15T16:36:09.831Z,101374.88
2023-01-15T16:41:18.653Z,101373.06
2023-01-15T16:46:18.118Z,101386.34
2023-01-15T16:51:42.410Z,101413.25
2023-01-15T16:56:41.578Z,101418.97
2023-01-15T17:01:44.871Z,101378.34
2023-01-15T17:06:42.936Z,101407.28
2023-01-15T17:11:53.398Z,101382.59
2023-01-15T17:17:21.097Z,101406.91
2023-01-15T17:22:28.850Z,101393.19
2023-01-15T17:27:28.719Z,101381.81
2023-01-15T17:32:36.576Z,101403.81
2023-01-15T17:37:34.303Z,101393.28
2023-01-15T17:42:31.895Z,101356.44
2023-01-15T17:47:32.744Z,101356.53
2023-01-15T17:52:34.491Z,101365.47
2023-01-15T17:57:58.381Z,101357.41
2023-01-15T18:03:18.279Z,101375.13
2023-01-15T18:08:23.767Z,101363.22
2023-01-15T18:13:28.630Z,101365.06
2023-01-15T18:18:31.084Z,101362.94
2023-01-15T18:23:35.372Z,101335.66
2023-01-15T18:28:35.327Z,101369.09
2023-01-15T18:33:37.420Z,101355.47
2023-01-15T18:38:36.636Z,101335.09
2023-01-15T18:44:00.861Z,101327.81
2023-01-15T18:48:59.836Z,101313.34
2023-01-15T18:53:58.449Z,101333.94
2023-01-15T18:58:58.810Z,101297.84
2023-01-15T19:03:58.912Z,101322.94
2023-01-15T19:09:24.569Z,101272.38
2023-01-15T19:14:44.783Z,101299.38
2023-01-15T19:19:45.927Z,101292.78
2023-01-15T19:25:28.183Z,101285.13
2023-01-15T19:30:28.214Z,101283.28
2023-01-15T19:35:29.860Z,101261.16
2023-01-15T19:40:41.433Z,101266.44
2023-01-15T19:46:05.464Z,101274.19
2023-01-15T19:51:06.696Z,101296.22
2023-01-15T19:56:09.082Z,101264.56
2023-01-15T20:01:25.608Z,101254.25
2023-01-15T20:06:59.363Z,101234.91
2023-01-15T20:12:30.930Z,101234.09
2023-01-15T20:18:15.655Z,101242.03
2023-01-15T20:23:17.778Z,101231.78
2023-01-15T20:28:20.061Z,101262.78
2023-01-15T20:33:22.878Z,101269.13
2023-01-15T20:38:25.173Z,101248.28
2023-01-15T20:43:46.912Z,101264.84
2023-01-15T20:49:40.074Z,101235.69
2023-01-15T20:54:42.708Z,101241.13
2023-01-15T20:59:45.874Z,101224.28
2023-01-15T21:04:46.981Z,101246.28
2023-01-15T21:09:46.564Z,101217.47
2023-01-15T21:14:47.515Z,101191.34
2023-01-15T21:19:55.791Z,101186.59
2023-01-15T21:25:06.989Z,101212.94
2023-01-15T21:30:14.600Z,101208.13
2023-01-15T21:35:16.595Z,101185.56
2023-01-15T21:40:27.677Z,101179.81
2023-01-15T21:45:30.701Z,101197.47
2023-01-15T21:50:36.664Z,101185.38
2023-01-15T21:55:37.026Z,101206.28
2023-01-15T22:00:38.103Z,101204.88
2023-01-15T22:05:37.171Z,101226.25
2023-01-15T22:10:38.498Z,101201.31
2023-01-15T22:15:39.178Z,101214.84
2023-01-15T22:20:37.284Z,101209.50
2023-01-15T22:25:48.769Z,101201.63
2023-01-15T22:30:51.509Z,101194.94
2023-01-15T22:36:13.301Z,101195.38
2023-01-15T22:41:36.893Z,101187.09
2023-01-15T22:46:40.045Z,101192.53
2023-01-15T22:51:42.871Z,101181.00
2023-01-15T22:57:05.264Z,101150.19
2023-01-15T23:02:06.011Z,101172.28
2023-01-15T23:07:16.156Z,101179.53
2023-01-15T23:12:17.287Z,101209.91
2023-01-15T23:17:28.429Z,101156.38
2023-01-15T23:22:32.203Z,101166.59
2023-01-15T23:27:46.322Z,101141.66
2023-01-15T23:32:46.304Z,101167.22
2023-01-15T23:37:58.585Z,101139.84
2023-01-15T23:43:17.341Z,101160.75
2023-01-15T23:48:22.031Z,101127.66
2023-01-15T23:53:29.439Z,101122.03
2023-01-15T23:58:48.028Z,101109.44
